sensor_id;sensor_type;location;lat;lon;timestamp;P1;durP1;ratioP1;P2;durP2;ratioP2
20375;SDS011;10347;51.828;6.466;2022-11-11T00:00:31;5.97;;;2.63;;
20375;SDS011;10347;51.828;6.466;2022-11-11T00:02:57;5.20;;;2.83;;
20375;SDS011;10347;51.828;6.466;2022-11-11T00:05:23;4.72;;;2.80;;
20375;SDS011;10347;51.828;6.466;2022-11-11T00:07:53;5.13;;;2.88;;
20375;SDS011;10347;51.828;6.466;2022-11-11T00:10:24;7.18;;;2.78;;
20375;SDS011;10347;51.828;6.466;2022-11-11T00:12:50;4.32;;;2.85;;
20375;SDS011;10347;51.828;6.466;2022-11-11T00:15:16;5.35;;;2.97;;
20375;SDS011;10347;51.828;6.466;2022-11-11T00:17:41;7.95;;;2.70;;
20375;SDS011;10347;51.828;6.466;2022-11-11T00:20:25;6.43;;;2.88;;
20375;SDS011;10347;51.828;6.466;2022-11-11T00:23:19;5.47;;;3.00;;
20375;SDS011;10347;51.828;6.466;2022-11-11T00:26:04;7.85;;;2.58;;
20375;SDS011;10347;51.828;6.466;2022-11-11T00:28:30;5.72;;;2.90;;
20375;SDS011;10347;51.828;6.466;2022-11-11T00:31:02;6.38;;;2.83;;
20375;SDS011;10347;51.828;6.466;2022-11-11T00:33:38;7.90;;;2.38;;
20375;SDS011;10347;51.828;6.466;2022-11-11T00:36:04;4.55;;;2.78;;
20375;SDS011;10347;51.828;6.466;2022-11-11T00:38:30;3.65;;;2.47;;
20375;SDS011;10347;51.828;6.466;2022-11-11T00:41:18;7.22;;;2.83;;
20375;SDS011;10347;51.828;6.466;2022-11-11T00:43:45;4.97;;;2.63;;
20375;SDS011;10347;51.828;6.466;2022-11-11T00:46:15;5.25;;;2.75;;
20375;SDS011;10347;51.828;6.466;2022-11-11T00:49:00;6.70;;;3.10;;
20375;SDS011;10347;51.828;6.466;2022-11-11T00:51:44;5.30;;;2.88;;
20375;SDS011;10347;51.828;6.466;2022-11-11T00:54:11;3.78;;;2.72;;
20375;SDS011;10347;51.828;6.466;2022-11-11T00:56:36;3.80;;;2.70;;
20375;SDS011;10347;51.828;6.466;2022-11-11T00:59:03;4.13;;;2.67;;
20375;SDS011;10347;51.828;6.466;2022-11-11T01:01:30;8.27;;;3.03;;
20375;SDS011;10347;51.828;6.466;2022-11-11T01:04:00;4.10;;;2.28;;
20375;SDS011;10347;51.828;6.466;2022-11-11T01:06:25;5.45;;;2.85;;
20375;SDS011;10347;51.828;6.466;2022-11-11T01:08:51;9.07;;;2.78;;
20375;SDS011;10347;51.828;6.466;2022-11-11T01:11:18;6.38;;;2.67;;
20375;SDS011;10347;51.828;6.466;2022-11-11T01:13:46;5.32;;;2.60;;
20375;SDS011;10347;51.828;6.466;2022-11-11T01:16:22;6.20;;;2.75;;
20375;SDS011;10347;51.828;6.466;2022-11-11T01:18:49;4.85;;;2.65;;
20375;SDS011;10347;51.828;6.466;2022-11-11T01:21:17;5.28;;;2.90;;
20375;SDS011;10347;51.828;6.466;2022-11-11T01:23:44;4.82;;;2.45;;
20375;SDS011;10347;51.828;6.466;2022-11-11T01:26:21;5.00;;;3.00;;
20375;SDS011;10347;51.828;6.466;2022-11-11T01:28:49;9.18;;;3.10;;
20375;SDS011;10347;51.828;6.466;2022-11-11T01:31:16;5.70;;;2.92;;
20375;SDS011;10347;51.828;6.466;2022-11-11T01:33:42;4.65;;;3.30;;
20375;SDS011;10347;51.828;6.466;2022-11-11T01:36:12;9.25;;;3.22;;
20375;SDS011;10347;51.828;6.466;2022-11-11T01:38:40;4.75;;;3.28;;
20375;SDS011;10347;51.828;6.466;2022-11-11T01:41:13;5.03;;;2.85;;
20375;SDS011;10347;51.828;6.466;2022-11-11T01:43:56;7.00;;;3.35;;
20375;SDS011;10347;51.828;6.466;2022-11-11T01:46:27;5.75;;;3.10;;
20375;SDS011;10347;51.828;6.466;2022-11-11T01:54:25;8.32;;;4.18;;
20375;SDS011;10347;51.828;6.466;2022-11-11T01:57:58;8.48;;;4.05;;
20375;SDS011;10347;51.828;6.466;2022-11-11T02:00:19;6.55;;;3.80;;
20375;SDS011;10347;51.828;6.466;2022-11-11T02:02:49;7.93;;;4.25;;
20375;SDS011;10347;51.828;6.466;2022-11-11T02:05:19;8.32;;;4.20;;
20375;SDS011;10347;51.828;6.466;2022-11-11T02:08:04;6.78;;;4.68;;
20375;SDS011;10347;51.828;6.466;2022-11-11T02:10:34;9.68;;;4.30;;
20375;SDS011;10347;51.828;6.466;2022-11-11T02:13:02;6.72;;;4.72;;
20375;SDS011;10347;51.828;6.466;2022-11-11T02:15:46;9.02;;;4.53;;
20375;SDS011;10347;51.828;6.466;2022-11-11T02:18:11;7.90;;;4.72;;
20375;SDS011;10347;51.828;6.466;2022-11-11T02:20:38;5.50;;;4.10;;
20375;SDS011;10347;51.828;6.466;2022-11-11T02:23:08;8.18;;;4.38;;
20375;SDS011;10347;51.828;6.466;2022-11-11T02:25:46;10.00;;;5.78;;
20375;SDS011;10347;51.828;6.466;2022-11-11T02:28:14;9.30;;;6.00;;
20375;SDS011;10347;51.828;6.466;2022-11-11T02:30:42;11.27;;;6.40;;
20375;SDS011;10347;51.828;6.466;2022-11-11T02:33:07;10.35;;;6.70;;
20375;SDS011;10347;51.828;6.466;2022-11-11T02:35:34;11.38;;;6.28;;
20375;SDS011;10347;51.828;6.466;2022-11-11T02:38:05;9.20;;;6.50;;
20375;SDS011;10347;51.828;6.466;2022-11-11T02:40:42;11.32;;;6.95;;
20375;SDS011;10347;51.828;6.466;2022-11-11T02:43:28;8.77;;;6.20;;
20375;SDS011;10347;51.828;6.466;2022-11-11T02:45:58;8.70;;;6.10;;
20375;SDS011;10347;51.828;6.466;2022-11-11T02:48:24;9.00;;;7.13;;
20375;SDS011;10347;51.828;6.466;2022-11-11T02:50:50;11.35;;;7.03;;
20375;SDS011;10347;51.828;6.466;2022-11-11T02:53:16;12.80;;;7.93;;
20375;SDS011;10347;51.828;6.466;2022-11-11T02:55:41;12.30;;;8.45;;
20375;SDS011;10347;51.828;6.466;2022-11-11T02:58:07;10.55;;;7.43;;
20375;SDS011;10347;51.828;6.466;2022-11-11T03:00:33;9.80;;;6.57;;
20375;SDS011;10347;51.828;6.466;2022-11-11T03:02:58;11.40;;;7.70;;
20375;SDS011;10347;51.828;6.466;2022-11-11T03:05:24;14.73;;;9.38;;
20375;SDS011;10347;51.828;6.466;2022-11-11T03:07:50;12.82;;;8.75;;
20375;SDS011;10347;51.828;6.466;2022-11-11T03:10:15;11.45;;;8.23;;
20375;SDS011;10347;51.828;6.466;2022-11-11T03:12:41;15.07;;;9.35;;
20375;SDS011;10347;51.828;6.466;2022-11-11T03:15:07;13.05;;;7.85;;
20375;SDS011;10347;51.828;6.466;2022-11-11T03:17:33;13.02;;;8.00;;
20375;SDS011;10347;51.828;6.466;2022-11-11T03:20:11;13.13;;;8.27;;
20375;SDS011;10347;51.828;6.466;2022-11-11T03:22:58;15.05;;;9.02;;
20375;SDS011;10347;51.828;6.466;2022-11-11T03:25:31;15.52;;;9.65;;
20375;SDS011;10347;51.828;6.466;2022-11-11T03:30:40;15.82;;;10.27;;
20375;SDS011;10347;51.828;6.466;2022-11-11T03:33:07;15.52;;;9.95;;
20375;SDS011;10347;51.828;6.466;2022-11-11T03:35:33;17.98;;;9.70;;
20375;SDS011;10347;51.828;6.466;2022-11-11T03:38:00;16.27;;;9.77;;
20375;SDS011;10347;51.828;6.466;2022-11-11T03:40:46;17.25;;;10.65;;
20375;SDS011;10347;51.828;6.466;2022-11-11T03:43:12;15.77;;;9.90;;
20375;SDS011;10347;51.828;6.466;2022-11-11T03:45:39;15.80;;;10.43;;
20375;SDS011;10347;51.828;6.466;2022-11-11T03:48:05;20.73;;;11.45;;
20375;SDS011;10347;51.828;6.466;2022-11-11T03:50:31;16.42;;;10.38;;
20375;SDS011;10347;51.828;6.466;2022-11-11T03:52:57;14.80;;;9.80;;
20375;SDS011;10347;51.828;6.466;2022-11-11T03:55:23;17.10;;;9.18;;
20375;SDS011;10347;51.828;6.466;2022-11-11T03:57:48;15.02;;;8.98;;
20375;SDS011;10347;51.828;6.466;2022-11-11T04:00:15;16.95;;;9.63;;
20375;SDS011;10347;51.828;6.466;2022-11-11T04:02:42;13.15;;;7.75;;
20375;SDS011;10347;51.828;6.466;2022-11-11T04:05:26;11.43;;;7.60;;
20375;SDS011;10347;51.828;6.466;2022-11-11T04:08:11;10.05;;;6.78;;
20375;SDS011;10347;51.828;6.466;2022-11-11T04:10:57;10.57;;;6.95;;
20375;SDS011;10347;51.828;6.466;2022-11-11T04:13:26;9.65;;;7.00;;
20375;SDS011;10347;51.828;6.466;2022-11-11T04:16:10;9.07;;;6.45;;
20375;SDS011;10347;51.828;6.466;2022-11-11T04:18:36;11.20;;;6.75;;
20375;SDS011;10347;51.828;6.466;2022-11-11T04:21:21;14.95;;;7.32;;
20375;SDS011;10347;51.828;6.466;2022-11-11T04:24:06;11.80;;;6.90;;
20375;SDS011;10347;51.828;6.466;2022-11-11T04:27:12;10.73;;;6.35;;
20375;SDS011;10347;51.828;6.466;2022-11-11T04:29:40;11.18;;;6.90;;
20375;SDS011;10347;51.828;6.466;2022-11-11T04:32:10;9.38;;;6.22;;
20375;SDS011;10347;51.828;6.466;2022-11-11T04:34:56;9.55;;;6.07;;
20375;SDS011;10347;51.828;6.466;2022-11-11T04:37:24;9.05;;;5.57;;
20375;SDS011;10347;51.828;6.466;2022-11-11T04:39:51;7.50;;;5.13;;
20375;SDS011;10347;51.828;6.466;2022-11-11T04:42:41;10.00;;;6.80;;
20375;SDS011;10347;51.828;6.466;2022-11-11T04:45:08;9.35;;;6.88;;
20375;SDS011;10347;51.828;6.466;2022-11-11T04:48:08;10.88;;;7.28;;
20375;SDS011;10347;51.828;6.466;2022-11-11T04:50:35;9.10;;;7.03;;
20375;SDS011;10347;51.828;6.466;2022-11-11T04:53:03;14.23;;;7.93;;
20375;SDS011;10347;51.828;6.466;2022-11-11T04:55:31;8.73;;;6.00;;
20375;SDS011;10347;51.828;6.466;2022-11-11T04:58:17;9.35;;;6.50;;
20375;SDS011;10347;51.828;6.466;2022-11-11T05:00:44;11.68;;;6.70;;
20375;SDS011;10347;51.828;6.466;2022-11-11T05:03:10;10.68;;;6.40;;
20375;SDS011;10347;51.828;6.466;2022-11-11T05:08:41;11.00;;;6.18;;
20375;SDS011;10347;51.828;6.466;2022-11-11T05:11:24;10.23;;;6.05;;
20375;SDS011;10347;51.828;6.466;2022-11-11T05:13:51;9.20;;;5.80;;
20375;SDS011;10347;51.828;6.466;2022-11-11T05:16:54;10.15;;;5.90;;
20375;SDS011;10347;51.828;6.466;2022-11-11T05:19:40;8.90;;;5.72;;
20375;SDS011;10347;51.828;6.466;2022-11-11T05:22:40;8.27;;;5.47;;
20375;SDS011;10347;51.828;6.466;2022-11-11T05:25:07;7.20;;;5.13;;
20375;SDS011;10347;51.828;6.466;2022-11-11T05:27:50;6.88;;;5.38;;
20375;SDS011;10347;51.828;6.466;2022-11-11T05:30:20;9.35;;;5.82;;
20375;SDS011;10347;51.828;6.466;2022-11-11T05:32:46;10.60;;;6.10;;
20375;SDS011;10347;51.828;6.466;2022-11-11T05:35:12;10.13;;;6.32;;
20375;SDS011;10347;51.828;6.466;2022-11-11T05:37:39;6.97;;;5.22;;
20375;SDS011;10347;51.828;6.466;2022-11-11T05:40:05;8.95;;;6.20;;
20375;SDS011;10347;51.828;6.466;2022-11-11T05:42:31;11.95;;;6.07;;
20375;SDS011;10347;51.828;6.466;2022-11-11T05:44:57;10.05;;;6.10;;
20375;SDS011;10347;51.828;6.466;2022-11-11T05:47:23;9.13;;;5.95;;
20375;SDS011;10347;51.828;6.466;2022-11-11T05:49:48;8.30;;;5.88;;
20375;SDS011;10347;51.828;6.466;2022-11-11T05:52:14;7.25;;;5.40;;
20375;SDS011;10347;51.828;6.466;2022-11-11T05:54:41;7.05;;;5.35;;
20375;SDS011;10347;51.828;6.466;2022-11-11T05:57:07;5.85;;;5.00;;
20375;SDS011;10347;51.828;6.466;2022-11-11T05:59:33;7.63;;;5.50;;
20375;SDS011;10347;51.828;6.466;2022-11-11T06:01:59;8.52;;;5.55;;
20375;SDS011;10347;51.828;6.466;2022-11-11T06:04:24;8.75;;;5.50;;
20375;SDS011;10347;51.828;6.466;2022-11-11T06:06:50;6.50;;;5.00;;
20375;SDS011;10347;51.828;6.466;2022-11-11T06:09:15;8.93;;;5.53;;
20375;SDS011;10347;51.828;6.466;2022-11-11T06:11:41;6.78;;;4.60;;
20375;SDS011;10347;51.828;6.466;2022-11-11T06:14:07;8.65;;;5.45;;
20375;SDS011;10347;51.828;6.466;2022-11-11T06:16:33;7.90;;;5.43;;
20375;SDS011;10347;51.828;6.466;2022-11-11T06:18:58;6.45;;;4.97;;
20375;SDS011;10347;51.828;6.466;2022-11-11T06:21:25;6.78;;;5.00;;
20375;SDS011;10347;51.828;6.466;2022-11-11T06:23:51;9.68;;;5.03;;
20375;SDS011;10347;51.828;6.466;2022-11-11T06:26:16;7.68;;;5.00;;
20375;SDS011;10347;51.828;6.466;2022-11-11T06:28:49;7.20;;;4.50;;
20375;SDS011;10347;51.828;6.466;2022-11-11T06:31:35;6.65;;;4.05;;
20375;SDS011;10347;51.828;6.466;2022-11-11T06:34:00;7.05;;;4.10;;
20375;SDS011;10347;51.828;6.466;2022-11-11T06:36:26;5.68;;;3.90;;
20375;SDS011;10347;51.828;6.466;2022-11-11T06:38:51;6.95;;;3.75;;
20375;SDS011;10347;51.828;6.466;2022-11-11T06:41:17;5.75;;;3.72;;
20375;SDS011;10347;51.828;6.466;2022-11-11T06:43:44;8.18;;;3.90;;
20375;SDS011;10347;51.828;6.466;2022-11-11T06:46:14;6.00;;;4.05;;
20375;SDS011;10347;51.828;6.466;2022-11-11T06:48:48;6.72;;;3.83;;
20375;SDS011;10347;51.828;6.466;2022-11-11T06:51:14;9.40;;;4.10;;
20375;SDS011;10347;51.828;6.466;2022-11-11T06:53:40;6.30;;;4.20;;
20375;SDS011;10347;51.828;6.466;2022-11-11T06:56:06;5.47;;;4.00;;
20375;SDS011;10347;51.828;6.466;2022-11-11T06:58:32;7.55;;;4.43;;
20375;SDS011;10347;51.828;6.466;2022-11-11T07:00:57;9.57;;;4.20;;
20375;SDS011;10347;51.828;6.466;2022-11-11T07:03:23;6.30;;;3.97;;
20375;SDS011;10347;51.828;6.466;2022-11-11T07:05:49;5.55;;;3.85;;
20375;SDS011;10347;51.828;6.466;2022-11-11T07:08:15;10.90;;;4.43;;
20375;SDS011;10347;51.828;6.466;2022-11-11T07:10:43;9.60;;;4.10;;
20375;SDS011;10347;51.828;6.466;2022-11-11T07:13:10;6.78;;;4.25;;
20375;SDS011;10347;51.828;6.466;2022-11-11T07:15:36;4.72;;;3.50;;
20375;SDS011;10347;51.828;6.466;2022-11-11T07:18:02;6.32;;;3.50;;
20375;SDS011;10347;51.828;6.466;2022-11-11T07:20:28;6.00;;;3.80;;
20375;SDS011;10347;51.828;6.466;2022-11-11T07:22:54;7.50;;;3.90;;
20375;SDS011;10347;51.828;6.466;2022-11-11T07:25:20;7.55;;;4.22;;
20375;SDS011;10347;51.828;6.466;2022-11-11T07:27:45;6.63;;;3.97;;
20375;SDS011;10347;51.828;6.466;2022-11-11T07:30:11;7.13;;;3.92;;
20375;SDS011;10347;51.828;6.466;2022-11-11T07:32:37;5.80;;;4.38;;
20375;SDS011;10347;51.828;6.466;2022-11-11T07:35:12;4.85;;;3.65;;
20375;SDS011;10347;51.828;6.466;2022-11-11T07:37:38;5.72;;;3.97;;
20375;SDS011;10347;51.828;6.466;2022-11-11T07:40:04;8.52;;;3.80;;
20375;SDS011;10347;51.828;6.466;2022-11-11T07:42:30;6.07;;;3.63;;
20375;SDS011;10347;51.828;6.466;2022-11-11T07:44:56;7.68;;;4.20;;
20375;SDS011;10347;51.828;6.466;2022-11-11T07:47:22;6.43;;;3.50;;
20375;SDS011;10347;51.828;6.466;2022-11-11T07:49:47;9.43;;;3.55;;
20375;SDS011;10347;51.828;6.466;2022-11-11T07:52:13;5.85;;;3.35;;
20375;SDS011;10347;51.828;6.466;2022-11-11T07:54:38;4.75;;;3.42;;
20375;SDS011;10347;51.828;6.466;2022-11-11T07:57:04;6.43;;;3.50;;
20375;SDS011;10347;51.828;6.466;2022-11-11T07:59:29;6.63;;;3.28;;
20375;SDS011;10347;51.828;6.466;2022-11-11T08:01:55;6.70;;;3.40;;
20375;SDS011;10347;51.828;6.466;2022-11-11T08:04:21;6.75;;;3.10;;
20375;SDS011;10347;51.828;6.466;2022-11-11T08:06:46;5.72;;;2.90;;
20375;SDS011;10347;51.828;6.466;2022-11-11T08:09:12;4.47;;;3.22;;
20375;SDS011;10347;51.828;6.466;2022-11-11T08:11:37;3.92;;;3.15;;
20375;SDS011;10347;51.828;6.466;2022-11-11T08:14:21;5.05;;;2.72;;
20375;SDS011;10347;51.828;6.466;2022-11-11T08:16:47;5.32;;;2.60;;
20375;SDS011;10347;51.828;6.466;2022-11-11T08:19:13;3.15;;;2.72;;
20375;SDS011;10347;51.828;6.466;2022-11-11T08:21:38;7.10;;;2.88;;
20375;SDS011;10347;51.828;6.466;2022-11-11T08:24:04;6.95;;;3.10;;
20375;SDS011;10347;51.828;6.466;2022-11-11T08:26:29;4.88;;;2.70;;
20375;SDS011;10347;51.828;6.466;2022-11-11T08:28:55;3.13;;;2.75;;
20375;SDS011;10347;51.828;6.466;2022-11-11T08:31:21;4.70;;;2.58;;
20375;SDS011;10347;51.828;6.466;2022-11-11T08:33:46;5.75;;;3.20;;
20375;SDS011;10347;51.828;6.466;2022-11-11T08:36:12;4.57;;;2.80;;
20375;SDS011;10347;51.828;6.466;2022-11-11T08:38:38;5.38;;;3.00;;
20375;SDS011;10347;51.828;6.466;2022-11-11T08:41:04;3.75;;;2.80;;
20375;SDS011;10347;51.828;6.466;2022-11-11T08:43:31;3.15;;;2.60;;
20375;SDS011;10347;51.828;6.466;2022-11-11T08:45:58;6.13;;;3.30;;
20375;SDS011;10347;51.828;6.466;2022-11-11T08:48:25;4.20;;;2.58;;
20375;SDS011;10347;51.828;6.466;2022-11-11T08:50:51;5.15;;;2.50;;
20375;SDS011;10347;51.828;6.466;2022-11-11T08:53:17;5.30;;;2.72;;
20375;SDS011;10347;51.828;6.466;2022-11-11T08:55:43;6.53;;;3.00;;
20375;SDS011;10347;51.828;6.466;2022-11-11T08:58:09;4.88;;;2.63;;
20375;SDS011;10347;51.828;6.466;2022-11-11T09:00:35;4.13;;;3.08;;
20375;SDS011;10347;51.828;6.466;2022-11-11T09:03:05;4.30;;;2.70;;
20375;SDS011;10347;51.828;6.466;2022-11-11T09:05:32;5.88;;;3.10;;
20375;SDS011;10347;51.828;6.466;2022-11-11T09:08:02;5.35;;;2.97;;
20375;SDS011;10347;51.828;6.466;2022-11-11T09:10:31;4.50;;;2.65;;
20375;SDS011;10347;51.828;6.466;2022-11-11T09:12:57;4.28;;;2.42;;
20375;SDS011;10347;51.828;6.466;2022-11-11T09:15:23;3.10;;;2.53;;
20375;SDS011;10347;51.828;6.466;2022-11-11T09:17:50;3.70;;;2.53;;
20375;SDS011;10347;51.828;6.466;2022-11-11T09:20:15;2.60;;;2.40;;
20375;SDS011;10347;51.828;6.466;2022-11-11T09:22:43;5.75;;;2.90;;
20375;SDS011;10347;51.828;6.466;2022-11-11T09:25:12;3.85;;;2.30;;
20375;SDS011;10347;51.828;6.466;2022-11-11T09:27:38;7.53;;;3.03;;
20375;SDS011;10347;51.828;6.466;2022-11-11T09:30:05;4.70;;;2.63;;
20375;SDS011;10347;51.828;6.466;2022-11-11T09:32:31;4.57;;;2.42;;
20375;SDS011;10347;51.828;6.466;2022-11-11T09:34:57;7.75;;;2.92;;
20375;SDS011;10347;51.828;6.466;2022-11-11T09:37:23;5.10;;;2.60;;
20375;SDS011;10347;51.828;6.466;2022-11-11T09:39:49;3.25;;;2.65;;
20375;SDS011;10347;51.828;6.466;2022-11-11T09:47:40;2.67;;;2.08;;
20375;SDS011;10347;51.828;6.466;2022-11-11T09:50:10;4.43;;;2.30;;
20375;SDS011;10347;51.828;6.466;2022-11-11T09:52:45;2.80;;;2.20;;
20375;SDS011;10347;51.828;6.466;2022-11-11T09:55:26;6.13;;;2.58;;
20375;SDS011;10347;51.828;6.466;2022-11-11T09:58:03;5.97;;;2.03;;
20375;SDS011;10347;51.828;6.466;2022-11-11T10:00:36;3.63;;;2.50;;
20375;SDS011;10347;51.828;6.466;2022-11-11T10:03:13;4.15;;;2.25;;
20375;SDS011;10347;51.828;6.466;2022-11-11T10:08:29;6.30;;;2.58;;
20375;SDS011;10347;51.828;6.466;2022-11-11T10:11:01;4.55;;;2.40;;
20375;SDS011;10347;51.828;6.466;2022-11-11T10:13:36;3.65;;;2.28;;
20375;SDS011;10347;51.828;6.466;2022-11-11T10:16:08;2.30;;;2.10;;
20375;SDS011;10347;51.828;6.466;2022-11-11T10:24:31;3.10;;;2.00;;
20375;SDS011;10347;51.828;6.466;2022-11-11T10:26:59;6.93;;;2.40;;
20375;SDS011;10347;51.828;6.466;2022-11-11T10:29:50;2.58;;;1.92;;
20375;SDS011;10347;51.828;6.466;2022-11-11T10:32:19;3.53;;;2.05;;
20375;SDS011;10347;51.828;6.466;2022-11-11T10:34:59;2.88;;;2.17;;
20375;SDS011;10347;51.828;6.466;2022-11-11T10:37:40;3.50;;;2.20;;
20375;SDS011;10347;51.828;6.466;2022-11-11T10:40:25;2.70;;;2.15;;
20375;SDS011;10347;51.828;6.466;2022-11-11T10:48:38;3.25;;;1.90;;
20375;SDS011;10347;51.828;6.466;2022-11-11T10:51:15;4.03;;;2.10;;
20375;SDS011;10347;51.828;6.466;2022-11-11T10:56:15;2.20;;;2.00;;
20375;SDS011;10347;51.828;6.466;2022-11-11T10:58:48;3.72;;;2.20;;
20375;SDS011;10347;51.828;6.466;2022-11-11T11:01:40;2.47;;;1.92;;
20375;SDS011;10347;51.828;6.466;2022-11-11T11:04:14;3.78;;;1.88;;
20375;SDS011;10347;51.828;6.466;2022-11-11T11:06:46;4.97;;;2.10;;
20375;SDS011;10347;51.828;6.466;2022-11-11T11:11:47;2.97;;;1.88;;
20375;SDS011;10347;51.828;6.466;2022-11-11T11:14:22;2.28;;;1.80;;
20375;SDS011;10347;51.828;6.466;2022-11-11T11:16:53;3.33;;;2.25;;
20375;SDS011;10347;51.828;6.466;2022-11-11T11:19:23;4.10;;;2.20;;
20375;SDS011;10347;51.828;6.466;2022-11-11T11:21:59;4.85;;;2.15;;
20375;SDS011;10347;51.828;6.466;2022-11-11T11:24:27;2.30;;;2.00;;
20375;SDS011;10347;51.828;6.466;2022-11-11T11:26:53;2.55;;;1.80;;
20375;SDS011;10347;51.828;6.466;2022-11-11T11:29:24;3.38;;;2.20;;
20375;SDS011;10347;51.828;6.466;2022-11-11T11:31:55;5.60;;;2.00;;
20375;SDS011;10347;51.828;6.466;2022-11-11T11:34:50;5.38;;;2.10;;
20375;SDS011;10347;51.828;6.466;2022-11-11T11:37:21;4.13;;;2.00;;
20375;SDS011;10347;51.828;6.466;2022-11-11T11:39:48;2.95;;;1.90;;
20375;SDS011;10347;51.828;6.466;2022-11-11T11:42:30;7.00;;;2.53;;
20375;SDS011;10347;51.828;6.466;2022-11-11T11:47:42;2.55;;;1.95;;
20375;SDS011;10347;51.828;6.466;2022-11-11T11:52:53;5.70;;;1.90;;
20375;SDS011;10347;51.828;6.466;2022-11-11T12:07:33;2.33;;;2.05;;
20375;SDS011;10347;51.828;6.466;2022-11-11T12:12:53;1.83;;;1.70;;
20375;SDS011;10347;51.828;6.466;2022-11-11T12:15:40;2.90;;;1.90;;
20375;SDS011;10347;51.828;6.466;2022-11-11T12:21:07;2.70;;;1.70;;
20375;SDS011;10347;51.828;6.466;2022-11-11T12:26:36;2.05;;;1.75;;
20375;SDS011;10347;51.828;6.466;2022-11-11T12:29:47;1.98;;;1.77;;
20375;SDS011;10347;51.828;6.466;2022-11-11T12:35:32;2.20;;;1.75;;
20375;SDS011;10347;51.828;6.466;2022-11-11T12:38:05;3.55;;;1.65;;
20375;SDS011;10347;51.828;6.466;2022-11-11T12:43:18;1.85;;;1.65;;
20375;SDS011;10347;51.828;6.466;2022-11-11T12:46:00;2.20;;;1.40;;
20375;SDS011;10347;51.828;6.466;2022-11-11T12:54:26;1.77;;;1.67;;
20375;SDS011;10347;51.828;6.466;2022-11-11T12:57:01;2.20;;;1.83;;
20375;SDS011;10347;51.828;6.466;2022-11-11T13:02:37;1.88;;;1.73;;
20375;SDS011;10347;51.828;6.466;2022-11-11T13:05:29;6.32;;;1.75;;
20375;SDS011;10347;51.828;6.466;2022-11-11T13:16:16;2.58;;;1.33;;
20375;SDS011;10347;51.828;6.466;2022-11-11T13:21:56;3.25;;;1.45;;
20375;SDS011;10347;51.828;6.466;2022-11-11T13:24:36;1.58;;;1.40;;
20375;SDS011;10347;51.828;6.466;2022-11-11T13:27:03;2.70;;;1.50;;
20375;SDS011;10347;51.828;6.466;2022-11-11T13:29:54;2.78;;;1.23;;
20375;SDS011;10347;51.828;6.466;2022-11-11T13:32:28;2.10;;;1.23;;
20375;SDS011;10347;51.828;6.466;2022-11-11T13:35:31;1.70;;;1.20;;
20375;SDS011;10347;51.828;6.466;2022-11-11T13:38:04;5.38;;;1.92;;
20375;SDS011;10347;51.828;6.466;2022-11-11T13:40:41;3.55;;;1.58;;
20375;SDS011;10347;51.828;6.466;2022-11-11T13:43:23;1.38;;;1.30;;
20375;SDS011;10347;51.828;6.466;2022-11-11T13:46:29;1.30;;;1.20;;
20375;SDS011;10347;51.828;6.466;2022-11-11T13:49:09;2.47;;;1.15;;
20375;SDS011;10347;51.828;6.466;2022-11-11T13:51:44;1.80;;;1.45;;
20375;SDS011;10347;51.828;6.466;2022-11-11T13:54:21;4.32;;;1.20;;
20375;SDS011;10347;51.828;6.466;2022-11-11T13:57:29;3.65;;;1.50;;
20375;SDS011;10347;51.828;6.466;2022-11-11T14:02:41;2.47;;;1.40;;
20375;SDS011;10347;51.828;6.466;2022-11-11T14:20:43;1.48;;;1.33;;
20375;SDS011;10347;51.828;6.466;2022-11-11T14:25:50;1.30;;;1.08;;
20375;SDS011;10347;51.828;6.466;2022-11-11T14:33:44;3.10;;;1.20;;
20375;SDS011;10347;51.828;6.466;2022-11-11T14:36:23;2.88;;;1.50;;
20375;SDS011;10347;51.828;6.466;2022-11-11T14:42:00;1.70;;;1.55;;
20375;SDS011;10347;51.828;6.466;2022-11-11T14:49:45;1.83;;;1.30;;
20375;SDS011;10347;51.828;6.466;2022-11-11T14:54:43;2.17;;;1.60;;
20375;SDS011;10347;51.828;6.466;2022-11-11T14:57:16;2.28;;;1.60;;
20375;SDS011;10347;51.828;6.466;2022-11-11T14:59:45;3.45;;;1.55;;
20375;SDS011;10347;51.828;6.466;2022-11-11T15:02:22;1.98;;;1.60;;
20375;SDS011;10347;51.828;6.466;2022-11-11T15:04:57;3.72;;;1.75;;
20375;SDS011;10347;51.828;6.466;2022-11-11T15:07:35;1.92;;;1.67;;
20375;SDS011;10347;51.828;6.466;2022-11-11T15:10:28;1.85;;;1.48;;
20375;SDS011;10347;51.828;6.466;2022-11-11T15:16:15;1.92;;;1.50;;
20375;SDS011;10347;51.828;6.466;2022-11-11T15:19:02;2.55;;;1.60;;
20375;SDS011;10347;51.828;6.466;2022-11-11T15:24:33;2.40;;;1.50;;
20375;SDS011;10347;51.828;6.466;2022-11-11T15:27:26;1.40;;;1.30;;
20375;SDS011;10347;51.828;6.466;2022-11-11T15:30:18;1.77;;;1.50;;
20375;SDS011;10347;51.828;6.466;2022-11-11T15:36:12;3.35;;;1.90;;
20375;SDS011;10347;51.828;6.466;2022-11-11T15:38:55;2.20;;;1.70;;
20375;SDS011;10347;51.828;6.466;2022-11-11T15:41:23;2.47;;;2.03;;
20375;SDS011;10347;51.828;6.466;2022-11-11T15:43:56;3.45;;;2.42;;
20375;SDS011;10347;51.828;6.466;2022-11-11T15:46:24;4.72;;;2.70;;
20375;SDS011;10347;51.828;6.466;2022-11-11T15:48:53;4.35;;;2.75;;
20375;SDS011;10347;51.828;6.466;2022-11-11T15:51:29;2.90;;;2.50;;
20375;SDS011;10347;51.828;6.466;2022-11-11T15:56:43;4.55;;;2.45;;
20375;SDS011;10347;51.828;6.466;2022-11-11T15:59:21;4.40;;;2.75;;
20375;SDS011;10347;51.828;6.466;2022-11-11T16:01:48;2.90;;;2.60;;
20375;SDS011;10347;51.828;6.466;2022-11-11T16:04:16;5.68;;;3.05;;
20375;SDS011;10347;51.828;6.466;2022-11-11T16:06:44;3.33;;;2.60;;
20375;SDS011;10347;51.828;6.466;2022-11-11T16:09:11;4.15;;;2.78;;
20375;SDS011;10347;51.828;6.466;2022-11-11T16:11:39;3.08;;;2.75;;
20375;SDS011;10347;51.828;6.466;2022-11-11T16:14:06;4.65;;;3.05;;
20375;SDS011;10347;51.828;6.466;2022-11-11T16:16:35;3.53;;;2.80;;
20375;SDS011;10347;51.828;6.466;2022-11-11T16:19:05;6.47;;;3.00;;
20375;SDS011;10347;51.828;6.466;2022-11-11T16:24:26;4.47;;;2.80;;
20375;SDS011;10347;51.828;6.466;2022-11-11T16:26:57;4.78;;;3.03;;
20375;SDS011;10347;51.828;6.466;2022-11-11T16:29:26;4.13;;;3.35;;
20375;SDS011;10347;51.828;6.466;2022-11-11T16:32:15;4.38;;;3.22;;
20375;SDS011;10347;51.828;6.466;2022-11-11T16:34:42;8.60;;;3.40;;
20375;SDS011;10347;51.828;6.466;2022-11-11T16:37:10;5.55;;;3.20;;
20375;SDS011;10347;51.828;6.466;2022-11-11T16:39:37;4.43;;;3.60;;
20375;SDS011;10347;51.828;6.466;2022-11-11T16:42:03;5.72;;;3.30;;
20375;SDS011;10347;51.828;6.466;2022-11-11T16:52:25;4.93;;;3.40;;
20375;SDS011;10347;51.828;6.466;2022-11-11T16:54:55;3.92;;;3.28;;
20375;SDS011;10347;51.828;6.466;2022-11-11T16:57:25;4.85;;;2.92;;
20375;SDS011;10347;51.828;6.466;2022-11-11T16:59:56;5.40;;;2.97;;
20375;SDS011;10347;51.828;6.466;2022-11-11T17:02:28;4.45;;;2.83;;
20375;SDS011;10347;51.828;6.466;2022-11-11T17:04:54;3.70;;;3.00;;
20375;SDS011;10347;51.828;6.466;2022-11-11T17:07:28;4.25;;;3.50;;
20375;SDS011;10347;51.828;6.466;2022-11-11T17:12:39;3.50;;;2.92;;
20375;SDS011;10347;51.828;6.466;2022-11-11T17:15:06;4.68;;;3.03;;
20375;SDS011;10347;51.828;6.466;2022-11-11T17:17:35;4.10;;;3.00;;
20375;SDS011;10347;51.828;6.466;2022-11-11T17:20:04;3.63;;;3.00;;
20375;SDS011;10347;51.828;6.466;2022-11-11T17:22:44;6.70;;;3.03;;
20375;SDS011;10347;51.828;6.466;2022-11-11T17:25:11;3.85;;;3.30;;
20375;SDS011;10347;51.828;6.466;2022-11-11T17:27:37;3.63;;;2.75;;
20375;SDS011;10347;51.828;6.466;2022-11-11T17:30:02;5.60;;;3.20;;
20375;SDS011;10347;51.828;6.466;2022-11-11T17:32:28;4.60;;;3.05;;
20375;SDS011;10347;51.828;6.466;2022-11-11T17:34:54;4.13;;;3.15;;
20375;SDS011;10347;51.828;6.466;2022-11-11T17:37:19;3.38;;;2.92;;
20375;SDS011;10347;51.828;6.466;2022-11-11T17:39:45;4.63;;;3.10;;
20375;SDS011;10347;51.828;6.466;2022-11-11T17:42:10;4.20;;;3.10;;